sensor_id;sensor_type;location;lat;lon;timestamp;temperature;humidity
19536;HTU21D;9913;51.168;4.124;2023-04-15T00:00:39;9.60;86.63
19536;HTU21D;9913;51.168;4.124;2023-04-15T00:03:07;9.68;86.35
19536;HTU21D;9913;51.168;4.124;2023-04-15T00:05:37;9.69;87.13
19536;HTU21D;9913;51.168;4.124;2023-04-15T00:08:05;9.76;88.15
19536;HTU21D;9913;51.168;4.124;2023-04-15T00:10:34;9.80;88.56
19536;HTU21D;9913;51.168;4.124;2023-04-15T00:13:02;9.67;86.58
19536;HTU21D;9913;51.168;4.124;2023-04-15T00:15:30;9.63;84.56
19536;HTU21D;9913;51.168;4.124;2023-04-15T00:17:58;9.71;84.87
19536;HTU21D;9913;51.168;4.124;2023-04-15T00:20:27;9.77;86.32
19536;HTU21D;9913;51.168;4.124;2023-04-15T00:22:56;9.82;85.75
19536;HTU21D;9913;51.168;4.124;2023-04-15T00:25:26;9.93;86.36
19536;HTU21D;9913;51.168;4.124;2023-04-15T00:27:55;9.93;88.42
19536;HTU21D;9913;51.168;4.124;2023-04-15T00:30:23;9.71;86.77
19536;HTU21D;9913;51.168;4.124;2023-04-15T00:32:52;9.70;86.80
19536;HTU21D;9913;51.168;4.124;2023-04-15T00:35:21;9.65;85.16
19536;HTU21D;9913;51.168;4.124;2023-04-15T00:37:50;9.71;86.08
19536;HTU21D;9913;51.168;4.124;2023-04-15T00:40:20;9.77;84.56
19536;HTU21D;9913;51.168;4.124;2023-04-15T00:42:50;9.74;84.55
19536;HTU21D;9913;51.168;4.124;2023-04-15T00:45:19;9.81;84.74
19536;HTU21D;9913;51.168;4.124;2023-04-15T00:47:47;9.82;83.14
19536;HTU21D;9913;51.168;4.124;2023-04-15T00:50:16;9.84;82.75
19536;HTU21D;9913;51.168;4.124;2023-04-15T00:52:44;9.67;79.60
19536;HTU21D;9913;51.168;4.124;2023-04-15T00:55:14;9.53;69.43
19536;HTU21D;9913;51.168;4.124;2023-04-15T00:57:43;9.52;66.18
19536;HTU21D;9913;51.168;4.124;2023-04-15T01:00:12;9.59;66.48
19536;HTU21D;9913;51.168;4.124;2023-04-15T01:02:42;9.59;65.33
19536;HTU21D;9913;51.168;4.124;2023-04-15T01:05:11;9.51;65.37
19536;HTU21D;9913;51.168;4.124;2023-04-15T01:07:39;9.50;65.40
19536;HTU21D;9913;51.168;4.124;2023-04-15T01:10:08;9.54;63.56
19536;HTU21D;9913;51.168;4.124;2023-04-15T01:12:36;9.35;63.87
19536;HTU21D;9913;51.168;4.124;2023-04-15T01:15:08;9.32;63.37
19536;HTU21D;9913;51.168;4.124;2023-04-15T01:17:37;9.14;62.92
19536;HTU21D;9913;51.168;4.124;2023-04-15T01:20:07;9.21;61.82
19536;HTU21D;9913;51.168;4.124;2023-04-15T01:22:38;9.21;61.89
19536;HTU21D;9913;51.168;4.124;2023-04-15T01:25:10;9.11;61.48
19536;HTU21D;9913;51.168;4.124;2023-04-15T01:27:40;9.20;61.63
19536;HTU21D;9913;51.168;4.124;2023-04-15T01:30:09;9.21;61.76
19536;HTU21D;9913;51.168;4.124;2023-04-15T01:32:38;9.10;61.28
19536;HTU21D;9913;51.168;4.124;2023-04-15T01:35:25;9.18;61.38
19536;HTU21D;9913;51.168;4.124;2023-04-15T01:37:53;9.14;61.02
19536;HTU21D;9913;51.168;4.124;2023-04-15T01:40:21;9.17;61.21
19536;HTU21D;9913;51.168;4.124;2023-04-15T01:42:52;9.03;61.10
19536;HTU21D;9913;51.168;4.124;2023-04-15T01:45:22;9.08;60.97
19536;HTU21D;9913;51.168;4.124;2023-04-15T01:47:52;9.04;61.31
19536;HTU21D;9913;51.168;4.124;2023-04-15T01:50:21;9.04;61.16
19536;HTU21D;9913;51.168;4.124;2023-04-15T01:52:51;8.95;61.10
19536;HTU21D;9913;51.168;4.124;2023-04-15T01:55:20;9.03;61.47
19536;HTU21D;9913;51.168;4.124;2023-04-15T01:57:50;9.04;61.48
19536;HTU21D;9913;51.168;4.124;2023-04-15T02:00:22;9.04;61.83
19536;HTU21D;9913;51.168;4.124;2023-04-15T02:02:52;9.07;61.50
19536;HTU21D;9913;51.168;4.124;2023-04-15T02:05:25;9.05;61.67
19536;HTU21D;9913;51.168;4.124;2023-04-15T02:07:56;9.03;61.39
19536;HTU21D;9913;51.168;4.124;2023-04-15T02:10:26;9.10;60.94
19536;HTU21D;9913;51.168;4.124;2023-04-15T02:12:55;9.01;61.21
19536;HTU21D;9913;51.168;4.124;2023-04-15T02:15:29;8.90;61.31
19536;HTU21D;9913;51.168;4.124;2023-04-15T02:17:59;8.95;61.42
19536;HTU21D;9913;51.168;4.124;2023-04-15T02:20:29;8.86;61.15
19536;HTU21D;9913;51.168;4.124;2023-04-15T02:22:59;8.82;61.21
19536;HTU21D;9913;51.168;4.124;2023-04-15T02:25:29;8.94;60.93
19536;HTU21D;9913;51.168;4.124;2023-04-15T02:27:58;8.93;61.09
19536;HTU21D;9913;51.168;4.124;2023-04-15T02:30:29;8.92;60.72
19536;HTU21D;9913;51.168;4.124;2023-04-15T02:33:02;8.92;60.67
19536;HTU21D;9913;51.168;4.124;2023-04-15T02:35:32;8.93;60.84
19536;HTU21D;9913;51.168;4.124;2023-04-15T02:38:03;8.95;61.16
19536;HTU21D;9913;51.168;4.124;2023-04-15T02:40:32;9.02;60.77
19536;HTU21D;9913;51.168;4.124;2023-04-15T02:43:02;9.00;60.68
19536;HTU21D;9913;51.168;4.124;2023-04-15T02:45:35;8.76;60.58
19536;HTU21D;9913;51.168;4.124;2023-04-15T02:48:05;8.74;60.62
19536;HTU21D;9913;51.168;4.124;2023-04-15T02:50:36;8.86;60.67
19536;HTU21D;9913;51.168;4.124;2023-04-15T02:53:08;8.91;60.72
19536;HTU21D;9913;51.168;4.124;2023-04-15T02:55:37;8.89;60.67
19536;HTU21D;9913;51.168;4.124;2023-04-15T02:58:07;8.82;60.83
19536;HTU21D;9913;51.168;4.124;2023-04-15T03:00:38;8.76;60.83
19536;HTU21D;9913;51.168;4.124;2023-04-15T03:03:08;8.76;60.65
19536;HTU21D;9913;51.168;4.124;2023-04-15T03:05:38;8.78;60.69
19536;HTU21D;9913;51.168;4.124;2023-04-15T03:08:08;8.81;60.93
19536;HTU21D;9913;51.168;4.124;2023-04-15T03:10:38;8.83;60.70
19536;HTU21D;9913;51.168;4.124;2023-04-15T03:13:07;8.64;60.64
19536;HTU21D;9913;51.168;4.124;2023-04-15T03:15:42;8.68;60.92
19536;HTU21D;9913;51.168;4.124;2023-04-15T03:18:11;8.77;60.77
19536;HTU21D;9913;51.168;4.124;2023-04-15T03:20:42;8.82;60.83
19536;HTU21D;9913;51.168;4.124;2023-04-15T03:23:11;8.82;60.73
19536;HTU21D;9913;51.168;4.124;2023-04-15T03:25:41;8.88;60.69
19536;HTU21D;9913;51.168;4.124;2023-04-15T03:28:11;8.94;60.84
19536;HTU21D;9913;51.168;4.124;2023-04-15T03:30:42;9.01;60.72
19536;HTU21D;9913;51.168;4.124;2023-04-15T03:33:12;8.88;60.56
19536;HTU21D;9913;51.168;4.124;2023-04-15T03:35:41;8.82;60.52
19536;HTU21D;9913;51.168;4.124;2023-04-15T03:38:11;8.86;60.54
19536;HTU21D;9913;51.168;4.124;2023-04-15T03:40:40;8.83;60.73
19536;HTU21D;9913;51.168;4.124;2023-04-15T03:43:10;8.80;60.49
19536;HTU21D;9913;51.168;4.124;2023-04-15T03:45:39;8.80;60.64
19536;HTU21D;9913;51.168;4.124;2023-04-15T03:48:10;8.76;60.54
19536;HTU21D;9913;51.168;4.124;2023-04-15T03:50:45;8.80;60.72
19536;HTU21D;9913;51.168;4.124;2023-04-15T03:53:15;8.91;60.80
19536;HTU21D;9913;51.168;4.124;2023-04-15T03:55:45;8.80;60.54
19536;HTU21D;9913;51.168;4.124;2023-04-15T03:58:14;8.78;60.72
19536;HTU21D;9913;51.168;4.124;2023-04-15T04:00:44;8.83;60.75
19536;HTU21D;9913;51.168;4.124;2023-04-15T04:03:15;8.82;60.74
19536;HTU21D;9913;51.168;4.124;2023-04-15T04:05:45;8.89;60.87
19536;HTU21D;9913;51.168;4.124;2023-04-15T04:08:14;8.83;60.51
19536;HTU21D;9913;51.168;4.124;2023-04-15T04:10:45;8.77;60.44
19536;HTU21D;9913;51.168;4.124;2023-04-15T04:13:14;8.68;60.41
19536;HTU21D;9913;51.168;4.124;2023-04-15T04:15:44;8.62;60.46
19536;HTU21D;9913;51.168;4.124;2023-04-15T04:18:15;8.64;60.38
19536;HTU21D;9913;51.168;4.124;2023-04-15T04:20:44;8.68;60.09
19536;HTU21D;9913;51.168;4.124;2023-04-15T04:23:17;8.71;60.35
19536;HTU21D;9913;51.168;4.124;2023-04-15T04:25:47;8.59;60.31
19536;HTU21D;9913;51.168;4.124;2023-04-15T04:28:16;8.62;60.34
19536;HTU21D;9913;51.168;4.124;2023-04-15T04:30:46;8.61;59.78
19536;HTU21D;9913;51.168;4.124;2023-04-15T04:33:16;8.64;60.41
19536;HTU21D;9913;51.168;4.124;2023-04-15T04:35:46;8.68;60.34
19536;HTU21D;9913;51.168;4.124;2023-04-15T04:38:15;8.67;60.80
19536;HTU21D;9913;51.168;4.124;2023-04-15T04:40:45;8.66;61.08
19536;HTU21D;9913;51.168;4.124;2023-04-15T04:43:14;8.60;60.95
19536;HTU21D;9913;51.168;4.124;2023-04-15T04:45:44;8.63;61.21
19536;HTU21D;9913;51.168;4.124;2023-04-15T04:48:14;8.66;60.40
19536;HTU21D;9913;51.168;4.124;2023-04-15T04:50:45;8.63;60.47
19536;HTU21D;9913;51.168;4.124;2023-04-15T04:53:15;8.65;61.12
19536;HTU21D;9913;51.168;4.124;2023-04-15T04:55:45;8.65;61.00
19536;HTU21D;9913;51.168;4.124;2023-04-15T04:58:14;8.63;60.80
19536;HTU21D;9913;51.168;4.124;2023-04-15T05:00:44;8.72;60.73
19536;HTU21D;9913;51.168;4.124;2023-04-15T05:03:13;8.71;61.12
19536;HTU21D;9913;51.168;4.124;2023-04-15T05:05:43;8.74;61.05
19536;HTU21D;9913;51.168;4.124;2023-04-15T05:08:14;8.66;60.59
19536;HTU21D;9913;51.168;4.124;2023-04-15T05:10:44;8.63;61.28
19536;HTU21D;9913;51.168;4.124;2023-04-15T05:13:13;8.62;61.42
19536;HTU21D;9913;51.168;4.124;2023-04-15T05:15:42;8.65;61.43
19536;HTU21D;9913;51.168;4.124;2023-04-15T05:18:12;8.58;61.56
19536;HTU21D;9913;51.168;4.124;2023-04-15T05:20:42;8.63;61.63
19536;HTU21D;9913;51.168;4.124;2023-04-15T05:23:11;8.70;61.53
19536;HTU21D;9913;51.168;4.124;2023-04-15T05:25:42;8.77;61.68
19536;HTU21D;9913;51.168;4.124;2023-04-15T05:28:12;8.72;63.17
19536;HTU21D;9913;51.168;4.124;2023-04-15T05:30:41;8.76;62.65
19536;HTU21D;9913;51.168;4.124;2023-04-15T05:33:11;8.78;61.48
19536;HTU21D;9913;51.168;4.124;2023-04-15T05:35:40;8.83;62.29
19536;HTU21D;9913;51.168;4.124;2023-04-15T05:38:10;8.82;62.58
19536;HTU21D;9913;51.168;4.124;2023-04-15T05:40:39;8.92;62.85
19536;HTU21D;9913;51.168;4.124;2023-04-15T05:43:10;8.95;61.87
19536;HTU21D;9913;51.168;4.124;2023-04-15T05:45:40;8.93;65.66
19536;HTU21D;9913;51.168;4.124;2023-04-15T05:48:10;8.92;62.94
19536;HTU21D;9913;51.168;4.124;2023-04-15T05:50:40;9.08;64.08
19536;HTU21D;9913;51.168;4.124;2023-04-15T05:53:10;9.06;64.58
19536;HTU21D;9913;51.168;4.124;2023-04-15T05:55:39;9.14;64.98
19536;HTU21D;9913;51.168;4.124;2023-04-15T05:58:10;9.18;63.55
19536;HTU21D;9913;51.168;4.124;2023-04-15T06:00:40;9.22;65.89
19536;HTU21D;9913;51.168;4.124;2023-04-15T06:03:10;9.31;64.56
19536;HTU21D;9913;51.168;4.124;2023-04-15T06:05:40;9.47;63.32
19536;HTU21D;9913;51.168;4.124;2023-04-15T06:08:11;9.55;64.20
19536;HTU21D;9913;51.168;4.124;2023-04-15T06:10:41;9.63;65.77
19536;HTU21D;9913;51.168;4.124;2023-04-15T06:13:12;9.67;66.53
19536;HTU21D;9913;51.168;4.124;2023-04-15T06:15:42;9.71;65.90
19536;HTU21D;9913;51.168;4.124;2023-04-15T06:18:11;9.76;64.58
19536;HTU21D;9913;51.168;4.124;2023-04-15T06:20:41;9.86;66.32
19536;HTU21D;9913;51.168;4.124;2023-04-15T06:23:10;9.94;67.17
19536;HTU21D;9913;51.168;4.124;2023-04-15T06:25:40;9.83;66.21
19536;HTU21D;9913;51.168;4.124;2023-04-15T06:28:09;9.74;66.16
19536;HTU21D;9913;51.168;4.124;2023-04-15T06:30:40;9.81;66.25
19536;HTU21D;9913;51.168;4.124;2023-04-15T06:33:10;9.89;65.22
19536;HTU21D;9913;51.168;4.124;2023-04-15T06:35:39;9.96;67.18
19536;HTU21D;9913;51.168;4.124;2023-04-15T06:38:09;10.05;67.35
19536;HTU21D;9913;51.168;4.124;2023-04-15T06:40:38;10.25;66.46
19536;HTU21D;9913;51.168;4.124;2023-04-15T06:43:08;10.21;66.95
19536;HTU21D;9913;51.168;4.124;2023-04-15T06:45:37;10.04;66.78
19536;HTU21D;9913;51.168;4.124;2023-04-15T06:48:08;10.28;66.86
19536;HTU21D;9913;51.168;4.124;2023-04-15T06:50:38;10.16;67.31
19536;HTU21D;9913;51.168;4.124;2023-04-15T06:53:08;10.22;67.03
19536;HTU21D;9913;51.168;4.124;2023-04-15T06:55:37;10.36;66.75
19536;HTU21D;9913;51.168;4.124;2023-04-15T06:58:07;10.26;67.67
19536;HTU21D;9913;51.168;4.124;2023-04-15T07:00:37;10.15;67.83
19536;HTU21D;9913;51.168;4.124;2023-04-15T07:03:11;10.25;66.93
19536;HTU21D;9913;51.168;4.124;2023-04-15T07:05:41;10.38;69.07
19536;HTU21D;9913;51.168;4.124;2023-04-15T07:08:10;10.57;69.35
19536;HTU21D;9913;51.168;4.124;2023-04-15T07:10:40;10.71;68.42
19536;HTU21D;9913;51.168;4.124;2023-04-15T07:13:09;10.75;68.23
19536;HTU21D;9913;51.168;4.124;2023-04-15T07:15:39;10.87;68.23
19536;HTU21D;9913;51.168;4.124;2023-04-15T07:18:09;10.58;68.62
19536;HTU21D;9913;51.168;4.124;2023-04-15T07:20:39;10.56;67.59
19536;HTU21D;9913;51.168;4.124;2023-04-15T07:23:09;10.74;68.90
19536;HTU21D;9913;51.168;4.124;2023-04-15T07:25:39;10.77;67.20
19536;HTU21D;9913;51.168;4.124;2023-04-15T07:28:08;10.97;68.04
19536;HTU21D;9913;51.168;4.124;2023-04-15T07:30:38;10.97;68.62
19536;HTU21D;9913;51.168;4.124;2023-04-15T07:33:10;10.42;68.45
19536;HTU21D;9913;51.168;4.124;2023-04-15T07:35:39;10.78;69.21
19536;HTU21D;9913;51.168;4.124;2023-04-15T07:38:09;10.68;67.99
19536;HTU21D;9913;51.168;4.124;2023-04-15T07:40:39;10.79;69.07
19536;HTU21D;9913;51.168;4.124;2023-04-15T07:43:09;11.08;68.68
19536;HTU21D;9913;51.168;4.124;2023-04-15T07:45:39;11.36;67.23
19536;HTU21D;9913;51.168;4.124;2023-04-15T07:48:09;11.38;68.36
19536;HTU21D;9913;51.168;4.124;2023-04-15T07:50:39;11.46;68.92
19536;HTU21D;9913;51.168;4.124;2023-04-15T07:53:08;11.87;69.38
19536;HTU21D;9913;51.168;4.124;2023-04-15T07:55:38;11.94;68.09
19536;HTU21D;9913;51.168;4.124;2023-04-15T07:58:08;11.91;69.62
19536;HTU21D;9913;51.168;4.124;2023-04-15T08:00:37;11.48;68.44
19536;HTU21D;9913;51.168;4.124;2023-04-15T08:03:07;11.25;68.04
19536;HTU21D;9913;51.168;4.124;2023-04-15T08:05:38;11.53;68.71
19536;HTU21D;9913;51.168;4.124;2023-04-15T08:08:08;11.99;68.36
19536;HTU21D;9913;51.168;4.124;2023-04-15T08:10:37;12.51;69.89
19536;HTU21D;9913;51.168;4.124;2023-04-15T08:13:07;12.46;68.07
19536;HTU21D;9913;51.168;4.124;2023-04-15T08:15:36;12.56;67.96
19536;HTU21D;9913;51.168;4.124;2023-04-15T08:18:06;12.58;69.98
19536;HTU21D;9913;51.168;4.124;2023-04-15T08:20:35;12.65;70.38
19536;HTU21D;9913;51.168;4.124;2023-04-15T08:23:06;13.15;69.20
19536;HTU21D;9913;51.168;4.124;2023-04-15T08:25:36;13.35;67.02
19536;HTU21D;9913;51.168;4.124;2023-04-15T08:28:07;13.37;67.36
19536;HTU21D;9913;51.168;4.124;2023-04-15T08:30:37;13.67;70.62
19536;HTU21D;9913;51.168;4.124;2023-04-15T08:33:06;13.84;68.46
19536;HTU21D;9913;51.168;4.124;2023-04-15T08:35:36;13.80;68.33
19536;HTU21D;9913;51.168;4.124;2023-04-15T08:38:07;13.89;69.26
19536;HTU21D;9913;51.168;4.124;2023-04-15T08:40:40;14.47;68.19
19536;HTU21D;9913;51.168;4.124;2023-04-15T08:43:14;14.48;68.07
19536;HTU21D;9913;51.168;4.124;2023-04-15T08:45:44;14.32;64.98
19536;HTU21D;9913;51.168;4.124;2023-04-15T08:48:16;14.45;66.42
19536;HTU21D;9913;51.168;4.124;2023-04-15T08:50:46;14.42;68.09
19536;HTU21D;9913;51.168;4.124;2023-04-15T08:53:17;14.06;66.88
19536;HTU21D;9913;51.168;4.124;2023-04-15T08:55:50;14.17;67.68
19536;HTU21D;9913;51.168;4.124;2023-04-15T08:58:21;14.37;67.50
19536;HTU21D;9913;51.168;4.124;2023-04-15T09:00:50;14.51;67.76
19536;HTU21D;9913;51.168;4.124;2023-04-15T09:03:20;14.78;66.43
19536;HTU21D;9913;51.168;4.124;2023-04-15T09:05:50;14.65;66.43
19536;HTU21D;9913;51.168;4.124;2023-04-15T09:08:21;14.75;66.47
19536;HTU21D;9913;51.168;4.124;2023-04-15T09:10:52;14.67;107.63
19536;HTU21D;9913;51.168;4.124;2023-04-15T09:13:22;15.07;114.54
19536;HTU21D;9913;51.168;4.124;2023-04-15T09:15:52;14.93;114.05
19536;HTU21D;9913;51.168;4.124;2023-04-15T09:18:29;15.12;116.32
19536;HTU21D;9913;51.168;4.124;2023-04-15T09:21:06;15.37;114.67
19536;HTU21D;9913;51.168;4.124;2023-04-15T09:23:39;15.02;112.51
19536;HTU21D;9913;51.168;4.124;2023-04-15T09:26:09;15.38;113.32
19536;HTU21D;9913;51.168;4.124;2023-04-15T09:28:41;15.31;112.32
19536;HTU21D;9913;51.168;4.124;2023-04-15T09:31:11;15.54;112.71
19536;HTU21D;9913;51.168;4.124;2023-04-15T09:33:53;15.28;113.64
19536;HTU21D;9913;51.168;4.124;2023-04-15T09:36:23;15.13;111.36
19536;HTU21D;9913;51.168;4.124;2023-04-15T09:38:59;15.56;115.05
19536;HTU21D;9913;51.168;4.124;2023-04-15T09:41:28;15.18;113.78
19536;HTU21D;9913;51.168;4.124;2023-04-15T09:43:58;15.57;113.56
19536;HTU21D;9913;51.168;4.124;2023-04-15T09:46:40;15.55;112.53
19536;HTU21D;9913;51.168;4.124;2023-04-15T09:49:12;15.46;110.62
19536;HTU21D;9913;51.168;4.124;2023-04-15T09:51:41;15.49;109.43
19536;HTU21D;9913;51.168;4.124;2023-04-15T09:54:34;15.80;111.77
19536;HTU21D;9913;51.168;4.124;2023-04-15T09:57:05;15.46;112.55
19536;HTU21D;9913;51.168;4.124;2023-04-15T09:59:35;15.62;112.23
19536;HTU21D;9913;51.168;4.124;2023-04-15T10:02:05;15.63;110.68
19536;HTU21D;9913;51.168;4.124;2023-04-15T10:04:39;15.60;109.82
19536;HTU21D;9913;51.168;4.124;2023-04-15T10:07:09;15.14;108.60
19536;HTU21D;9913;51.168;4.124;2023-04-15T10:09:41;15.23;109.25
19536;HTU21D;9913;51.168;4.124;2023-04-15T10:12:15;15.60;108.90
19536;HTU21D;9913;51.168;4.124;2023-04-15T10:14:48;15.38;102.83
19536;HTU21D;9913;51.168;4.124;2023-04-15T10:17:21;15.58;103.52
19536;HTU21D;9913;51.168;4.124;2023-04-15T10:19:53;15.36;102.42
19536;HTU21D;9913;51.168;4.124;2023-04-15T10:22:23;15.32;101.38
19536;HTU21D;9913;51.168;4.124;2023-04-15T10:24:56;15.26;101.10
19536;HTU21D;9913;51.168;4.124;2023-04-15T10:27:27;15.58;103.02
19536;HTU21D;9913;51.168;4.124;2023-04-15T10:29:59;15.89;107.74
19536;HTU21D;9913;51.168;4.124;2023-04-15T10:32:30;15.76;101.83
19536;HTU21D;9913;51.168;4.124;2023-04-15T10:35:00;15.66;91.40
19536;HTU21D;9913;51.168;4.124;2023-04-15T10:37:35;15.48;86.08
19536;HTU21D;9913;51.168;4.124;2023-04-15T10:40:28;15.54;87.45
19536;HTU21D;9913;51.168;4.124;2023-04-15T10:43:05;15.76;91.88
19536;HTU21D;9913;51.168;4.124;2023-04-15T10:45:36;16.12;92.09
19536;HTU21D;9913;51.168;4.124;2023-04-15T10:48:06;16.14;87.56
19536;HTU21D;9913;51.168;4.124;2023-04-15T10:50:36;16.51;88.86
19536;HTU21D;9913;51.168;4.124;2023-04-15T10:53:09;16.27;91.21
19536;HTU21D;9913;51.168;4.124;2023-04-15T10:55:40;16.46;91.48
19536;HTU21D;9913;51.168;4.124;2023-04-15T10:58:10;16.52;88.94
19536;HTU21D;9913;51.168;4.124;2023-04-15T11:00:39;16.61;92.51
19536;HTU21D;9913;51.168;4.124;2023-04-15T11:03:09;16.36;85.73
19536;HTU21D;9913;51.168;4.124;2023-04-15T11:05:49;15.86;81.56
19536;HTU21D;9913;51.168;4.124;2023-04-15T11:08:19;15.68;83.01
19536;HTU21D;9913;51.168;4.124;2023-04-15T11:11:10;15.97;83.42
19536;HTU21D;9913;51.168;4.124;2023-04-15T11:13:47;15.98;80.04
19536;HTU21D;9913;51.168;4.124;2023-04-15T11:16:17;15.97;83.31
19536;HTU21D;9913;51.168;4.124;2023-04-15T11:18:53;16.29;87.91
19536;HTU21D;9913;51.168;4.124;2023-04-15T11:21:24;16.57;92.50
19536;HTU21D;9913;51.168;4.124;2023-04-15T11:23:54;16.28;87.25
19536;HTU21D;9913;51.168;4.124;2023-04-15T11:26:26;16.30;86.82
19536;HTU21D;9913;51.168;4.124;2023-04-15T11:28:56;16.63;87.49
19536;HTU21D;9913;51.168;4.124;2023-04-15T11:31:27;17.09;88.24
19536;HTU21D;9913;51.168;4.124;2023-04-15T11:33:58;16.39;81.75
19536;HTU21D;9913;51.168;4.124;2023-04-15T11:36:29;15.77;78.40
19536;HTU21D;9913;51.168;4.124;2023-04-15T11:39:00;15.98;80.53
19536;HTU21D;9913;51.168;4.124;2023-04-15T11:41:31;16.17;79.86
19536;HTU21D;9913;51.168;4.124;2023-04-15T11:44:00;16.44;80.04
19536;HTU21D;9913;51.168;4.124;2023-04-15T11:46:30;16.62;80.34
19536;HTU21D;9913;51.168;4.124;2023-04-15T11:49:00;16.52;79.06
19536;HTU21D;9913;51.168;4.124;2023-04-15T11:51:31;16.02;77.02
19536;HTU21D;9913;51.168;4.124;2023-04-15T11:54:00;16.43;77.82
19536;HTU21D;9913;51.168;4.124;2023-04-15T11:56:29;15.90;79.46
19536;HTU21D;9913;51.168;4.124;2023-04-15T11:58:59;16.64;85.69
19536;HTU21D;9913;51.168;4.124;2023-04-15T12:01:31;16.43;85.46
19536;HTU21D;9913;51.168;4.124;2023-04-15T12:03:59;16.46;86.93
19536;HTU21D;9913;51.168;4.124;2023-04-15T12:06:31;15.82;85.95
19536;HTU21D;9913;51.168;4.124;2023-04-15T12:09:06;16.40;90.04
19536;HTU21D;9913;51.168;4.124;2023-04-15T12:11:37;16.56;85.84
19536;HTU21D;9913;51.168;4.124;2023-04-15T12:14:15;16.31;86.51
19536;HTU21D;9913;51.168;4.124;2023-04-15T12:16:45;16.51;88.63
19536;HTU21D;9913;51.168;4.124;2023-04-15T12:19:22;16.64;90.15
19536;HTU21D;9913;51.168;4.124;2023-04-15T12:21:56;16.56;87.28
19536;HTU21D;9913;51.168;4.124;2023-04-15T12:24:27;16.50;86.95
19536;HTU21D;9913;51.168;4.124;2023-04-15T12:27:02;16.58;84.84
19536;HTU21D;9913;51.168;4.124;2023-04-15T12:29:33;16.21;82.39
19536;HTU21D;9913;51.168;4.124;2023-04-15T12:32:06;16.14;80.34
19536;HTU21D;9913;51.168;4.124;2023-04-15T12:34:36;16.04;80.61
19536;HTU21D;9913;51.168;4.124;2023-04-15T12:37:06;16.74;82.95
19536;HTU21D;9913;51.168;4.124;2023-04-15T12:39:36;16.73;84.77
19536;HTU21D;9913;51.168;4.124;2023-04-15T12:42:06;16.04;82.71
19536;HTU21D;9913;51.168;4.124;2023-04-15T12:44:36;16.28;84.37
19536;HTU21D;9913;51.168;4.124;2023-04-15T12:47:06;16.28;86.63
19536;HTU21D;9913;51.168;4.124;2023-04-15T12:49:35;16.49;85.58
19536;HTU21D;9913;51.168;4.124;2023-04-15T12:52:04;16.70;84.72
19536;HTU21D;9913;51.168;4.124;2023-04-15T12:54:32;16.40;81.67
19536;HTU21D;9913;51.168;4.124;2023-04-15T12:57:02;16.25;81.14
19536;HTU21D;9913;51.168;4.124;2023-04-15T12:59:35;16.57;81.86
19536;HTU21D;9913;51.168;4.124;2023-04-15T13:02:03;16.36;83.72
19536;HTU21D;9913;51.168;4.124;2023-04-15T13:04:32;16.92;84.29
19536;HTU21D;9913;51.168;4.124;2023-04-15T13:07:00;16.71;85.67
19536;HTU21D;9913;51.168;4.124;2023-04-15T13:09:30;16.36;84.77
19536;HTU21D;9913;51.168;4.124;2023-04-15T13:11:59;16.73;85.50
19536;HTU21D;9913;51.168;4.124;2023-04-15T13:14:28;16.45;85.13
19536;HTU21D;9913;51.168;4.124;2023-04-15T13:16:58;16.26;85.58
19536;HTU21D;9913;51.168;4.124;2023-04-15T13:19:26;17.01;85.98
19536;HTU21D;9913;51.168;4.124;2023-04-15T13:21:54;16.37;77.40
19536;HTU21D;9913;51.168;4.124;2023-04-15T13:24:23;16.70;79.59
19536;HTU21D;9913;51.168;4.124;2023-04-15T13:26:51;16.44;81.91
19536;HTU21D;9913;51.168;4.124;2023-04-15T13:29:20;16.60;82.12
19536;HTU21D;9913;51.168;4.124;2023-04-15T13:31:48;16.18;84.68
19536;HTU21D;9913;51.168;4.124;2023-04-15T13:34:18;16.15;85.46
19536;HTU21D;9913;51.168;4.124;2023-04-15T13:36:46;16.43;85.61
19536;HTU21D;9913;51.168;4.124;2023-04-15T13:39:14;16.47;86.65
19536;HTU21D;9913;51.168;4.124;2023-04-15T13:41:43;16.00;85.92
19536;HTU21D;9913;51.168;4.124;2023-04-15T13:44:11;15.91;86.68
19536;HTU21D;9913;51.168;4.124;2023-04-15T13:46:40;16.54;86.31
19536;HTU21D;9913;51.168;4.124;2023-04-15T13:49:08;16.39;87.41
19536;HTU21D;9913;51.168;4.124;2023-04-15T13:51:38;16.08;87.14
19536;HTU21D;9913;51.168;4.124;2023-04-15T13:54:07;16.36;86.95
19536;HTU21D;9913;51.168;4.124;2023-04-15T13:56:36;16.34;87.52
19536;HTU21D;9913;51.168;4.124;2023-04-15T13:59:04;16.47;88.83
19536;HTU21D;9913;51.168;4.124;2023-04-15T14:01:34;16.41;87.14
19536;HTU21D;9913;51.168;4.124;2023-04-15T14:04:03;16.06;89.76
19536;HTU21D;9913;51.168;4.124;2023-04-15T14:06:32;17.17;89.83
19536;HTU21D;9913;51.168;4.124;2023-04-15T14:09:02;16.57;92.32
19536;HTU21D;9913;51.168;4.124;2023-04-15T14:11:31;16.44;96.55
19536;HTU21D;9913;51.168;4.124;2023-04-15T14:14:01;17.03;96.89
19536;HTU21D;9913;51.168;4.124;2023-04-15T14:16:31;15.77;99.04
19536;HTU21D;9913;51.168;4.124;2023-04-15T14:19:00;15.58;101.43
19536;HTU21D;9913;51.168;4.124;2023-04-15T14:21:28;15.67;100.00
19536;HTU21D;9913;51.168;4.124;2023-04-15T14:23:58;14.73;102.19
19536;HTU21D;9913;51.168;4.124;2023-04-15T14:26:28;15.15;103.67
19536;HTU21D;9913;51.168;4.124;2023-04-15T14:28:56;15.10;103.34
19536;HTU21D;9913;51.168;4.124;2023-04-15T14:31:25;15.86;103.79
19536;HTU21D;9913;51.168;4.124;2023-04-15T14:33:53;15.69;102.91
19536;HTU21D;9913;51.168;4.124;2023-04-15T14:36:21;15.73;102.75
19536;HTU21D;9913;51.168;4.124;2023-04-15T14:38:50;14.96;102.44
19536;HTU21D;9913;51.168;4.124;2023-04-15T14:41:18;14.92;102.79
19536;HTU21D;9913;51.168;4.124;2023-04-15T14:43:48;15.60;103.24
19536;HTU21D;9913;51.168;4.124;2023-04-15T14:46:16;14.55;103.11
19536;HTU21D;9913;51.168;4.124;2023-04-15T14:48:45;15.36;103.07
19536;HTU21D;9913;51.168;4.124;2023-04-15T14:51:13;15.96;101.48
19536;HTU21D;9913;51.168;4.124;2023-04-15T14:53:42;16.18;101.62
19536;HTU21D;9913;51.168;4.124;2023-04-15T14:56:11;15.90;100.06
19536;HTU21D;9913;51.168;4.124;2023-04-15T14:58:39;16.65;100.54
19536;HTU21D;9913;51.168;4.124;2023-04-15T15:01:09;16.69;96.29
19536;HTU21D;9913;51.168;4.124;2023-04-15T15:03:37;16.32;97.13
19536;HTU21D;9913;51.168;4.124;2023-04-15T15:06:06;15.95;98.78
19536;HTU21D;9913;51.168;4.124;2023-04-15T15:08:35;16.26;97.70
19536;HTU21D;9913;51.168;4.124;2023-04-15T15:11:03;15.97;98.13
19536;HTU21D;9913;51.168;4.124;2023-04-15T15:13:32;15.82;98.81
19536;HTU21D;9913;51.168;4.124;2023-04-15T15:16:01;16.06;96.19
19536;HTU21D;9913;51.168;4.124;2023-04-15T15:18:30;16.34;95.52
19536;HTU21D;9913;51.168;4.124;2023-04-15T15:20:59;16.19;95.37
19536;HTU21D;9913;51.168;4.124;2023-04-15T15:23:27;15.83;93.21
19536;HTU21D;9913;51.168;4.124;2023-04-15T15:25:56;16.28;93.54
19536;HTU21D;9913;51.168;4.124;2023-04-15T15:28:25;15.88;93.12
19536;HTU21D;9913;51.168;4.124;2023-04-15T15:30:54;16.13;92.89
19536;HTU21D;9913;51.168;4.124;2023-04-15T15:33:22;15.85;91.87
19536;HTU21D;9913;51.168;4.124;2023-04-15T15:35:52;15.93;93.22
19536;HTU21D;9913;51.168;4.124;2023-04-15T15:38:21;16.31;93.64
19536;HTU21D;9913;51.168;4.124;2023-04-15T15:40:49;16.33;94.07
19536;HTU21D;9913;51.168;4.124;2023-04-15T15:43:18;15.98;94.45
19536;HTU21D;9913;51.168;4.124;2023-04-15T15:45:46;16.30;94.98
19536;HTU21D;9913;51.168;4.124;2023-04-15T15:48:17;16.06;94.69
19536;HTU21D;9913;51.168;4.124;2023-04-15T15:50:46;15.92;95.59
19536;HTU21D;9913;51.168;4.124;2023-04-15T15:53:15;15.96;96.39